sensor_id;sensor_type;location;lat;lon;timestamp;P1;durP1;ratioP1;P2;durP2;ratioP2
58669;SDS011;44439;47.924;10.198;2023-05-03T00:01:49;5.10;;;3.60;;
58669;SDS011;44439;47.924;10.198;2023-05-03T00:04:35;4.20;;;3.80;;
58669;SDS011;44439;47.924;10.198;2023-05-03T00:07:21;4.10;;;3.70;;
58669;SDS011;44439;47.924;10.198;2023-05-03T00:10:07;4.20;;;3.80;;
58669;SDS011;44439;47.924;10.198;2023-05-03T00:12:54;4.00;;;3.60;;
58669;SDS011;44439;47.924;10.198;2023-05-03T00:15:41;5.10;;;3.83;;
58669;SDS011;44439;47.924;10.198;2023-05-03T00:18:26;3.60;;;3.25;;
58669;SDS011;44439;47.924;10.198;2023-05-03T00:21:12;5.97;;;3.42;;
58669;SDS011;44439;47.924;10.198;2023-05-03T00:23:58;4.28;;;3.88;;
58669;SDS011;44439;47.924;10.198;2023-05-03T00:26:43;3.90;;;3.15;;
58669;SDS011;44439;47.924;10.198;2023-05-03T00:29:29;3.75;;;3.40;;
58669;SDS011;44439;47.924;10.198;2023-05-03T00:32:15;4.10;;;3.63;;
58669;SDS011;44439;47.924;10.198;2023-05-03T00:35:01;4.30;;;3.90;;
58669;SDS011;44439;47.924;10.198;2023-05-03T00:37:46;4.55;;;4.13;;
58669;SDS011;44439;47.924;10.198;2023-05-03T00:40:32;4.50;;;3.95;;
58669;SDS011;44439;47.924;10.198;2023-05-03T00:43:17;4.85;;;4.05;;
58669;SDS011;44439;47.924;10.198;2023-05-03T00:46:06;4.50;;;3.30;;
58669;SDS011;44439;47.924;10.198;2023-05-03T00:51:39;40.28;;;3.65;;
58669;SDS011;44439;47.924;10.198;2023-05-03T00:54:26;29.75;;;4.07;;
58669;SDS011;44439;47.924;10.198;2023-05-03T00:57:12;21.60;;;3.83;;
58669;SDS011;44439;47.924;10.198;2023-05-03T00:59:58;28.55;;;3.72;;
58669;SDS011;44439;47.924;10.198;2023-05-03T01:02:44;113.53;;;5.57;;
58669;SDS011;44439;47.924;10.198;2023-05-03T01:05:32;143.23;;;5.22;;
58669;SDS011;44439;47.924;10.198;2023-05-03T01:08:31;136.85;;;5.55;;
58669;SDS011;44439;47.924;10.198;2023-05-03T01:12:08;171.60;;;5.25;;
58669;SDS011;44439;47.924;10.198;2023-05-03T01:15:07;157.88;;;6.07;;
58669;SDS011;44439;47.924;10.198;2023-05-03T01:18:05;146.43;;;5.82;;
58669;SDS011;44439;47.924;10.198;2023-05-03T01:20:53;58.05;;;3.88;;
58669;SDS011;44439;47.924;10.198;2023-05-03T01:23:42;12.23;;;3.30;;
58669;SDS011;44439;47.924;10.198;2023-05-03T01:26:32;44.90;;;4.03;;
58669;SDS011;44439;47.924;10.198;2023-05-03T01:29:18;91.97;;;4.70;;
58669;SDS011;44439;47.924;10.198;2023-05-03T01:32:05;101.80;;;4.93;;
58669;SDS011;44439;47.924;10.198;2023-05-03T01:34:55;60.45;;;4.10;;
58669;SDS011;44439;47.924;10.198;2023-05-03T01:37:48;46.80;;;3.67;;
58669;SDS011;44439;47.924;10.198;2023-05-03T01:40:38;41.42;;;4.20;;
58669;SDS011;44439;47.924;10.198;2023-05-03T01:43:26;25.27;;;3.42;;
58669;SDS011;44439;47.924;10.198;2023-05-03T01:46:15;13.25;;;3.40;;
58669;SDS011;44439;47.924;10.198;2023-05-03T01:49:01;14.25;;;3.47;;
58669;SDS011;44439;47.924;10.198;2023-05-03T01:51:47;12.20;;;3.22;;
58669;SDS011;44439;47.924;10.198;2023-05-03T01:54:32;7.10;;;2.88;;
58669;SDS011;44439;47.924;10.198;2023-05-03T01:57:18;3.10;;;2.80;;
58669;SDS011;44439;47.924;10.198;2023-05-03T02:00:04;2.70;;;2.45;;
58669;SDS011;44439;47.924;10.198;2023-05-03T02:02:51;2.88;;;2.60;;
58669;SDS011;44439;47.924;10.198;2023-05-03T02:05:36;2.33;;;2.13;;
58669;SDS011;44439;47.924;10.198;2023-05-03T02:08:22;2.88;;;2.60;;
58669;SDS011;44439;47.924;10.198;2023-05-03T02:11:08;2.70;;;2.50;;
58669;SDS011;44439;47.924;10.198;2023-05-03T02:13:53;2.63;;;2.42;;
58669;SDS011;44439;47.924;10.198;2023-05-03T02:16:39;2.58;;;2.38;;
58669;SDS011;44439;47.924;10.198;2023-05-03T02:19:25;2.88;;;2.58;;
58669;SDS011;44439;47.924;10.198;2023-05-03T02:22:11;2.55;;;2.20;;
58669;SDS011;44439;47.924;10.198;2023-05-03T02:24:57;2.33;;;2.13;;
58669;SDS011;44439;47.924;10.198;2023-05-03T02:27:43;2.60;;;2.40;;
58669;SDS011;44439;47.924;10.198;2023-05-03T02:30:28;3.13;;;2.60;;
58669;SDS011;44439;47.924;10.198;2023-05-03T02:33:14;3.78;;;2.42;;
58669;SDS011;44439;47.924;10.198;2023-05-03T02:36:00;4.07;;;2.33;;
58669;SDS011;44439;47.924;10.198;2023-05-03T02:38:46;2.65;;;2.42;;
58669;SDS011;44439;47.924;10.198;2023-05-03T02:41:31;2.55;;;2.35;;
58669;SDS011;44439;47.924;10.198;2023-05-03T02:44:17;3.30;;;3.00;;
58669;SDS011;44439;47.924;10.198;2023-05-03T02:47:03;2.85;;;2.60;;
58669;SDS011;44439;47.924;10.198;2023-05-03T02:49:49;4.00;;;2.88;;
58669;SDS011;44439;47.924;10.198;2023-05-03T02:52:34;3.10;;;2.63;;
58669;SDS011;44439;47.924;10.198;2023-05-03T02:55:20;3.88;;;3.13;;
58669;SDS011;44439;47.924;10.198;2023-05-03T02:58:07;3.55;;;3.10;;
58669;SDS011;44439;47.924;10.198;2023-05-03T03:00:54;3.97;;;2.90;;
58669;SDS011;44439;47.924;10.198;2023-05-03T03:03:40;3.10;;;2.80;;
58669;SDS011;44439;47.924;10.198;2023-05-03T03:06:25;3.15;;;2.70;;
58669;SDS011;44439;47.924;10.198;2023-05-03T03:09:11;2.60;;;2.40;;
58669;SDS011;44439;47.924;10.198;2023-05-03T03:11:56;4.25;;;2.55;;
58669;SDS011;44439;47.924;10.198;2023-05-03T03:14:46;4.03;;;2.85;;
58669;SDS011;44439;47.924;10.198;2023-05-03T03:17:32;7.25;;;2.88;;
58669;SDS011;44439;47.924;10.198;2023-05-03T03:20:18;2.83;;;2.63;;
58669;SDS011;44439;47.924;10.198;2023-05-03T03:23:04;2.85;;;2.58;;
58669;SDS011;44439;47.924;10.198;2023-05-03T03:25:52;2.90;;;2.58;;
58669;SDS011;44439;47.924;10.198;2023-05-03T03:28:37;3.30;;;2.45;;
58669;SDS011;44439;47.924;10.198;2023-05-03T03:31:23;3.78;;;2.15;;
58669;SDS011;44439;47.924;10.198;2023-05-03T03:34:13;7.78;;;2.88;;
58669;SDS011;44439;47.924;10.198;2023-05-03T03:36:59;10.07;;;4.43;;
58669;SDS011;44439;47.924;10.198;2023-05-03T03:39:44;9.40;;;5.05;;
58669;SDS011;44439;47.924;10.198;2023-05-03T03:42:30;19.90;;;6.22;;
58669;SDS011;44439;47.924;10.198;2023-05-03T03:45:16;15.70;;;5.45;;
58669;SDS011;44439;47.924;10.198;2023-05-03T03:48:01;7.50;;;5.75;;
58669;SDS011;44439;47.924;10.198;2023-05-03T03:50:47;8.68;;;5.25;;
58669;SDS011;44439;47.924;10.198;2023-05-03T03:53:33;6.35;;;5.30;;
58669;SDS011;44439;47.924;10.198;2023-05-03T03:56:20;5.47;;;4.60;;
58669;SDS011;44439;47.924;10.198;2023-05-03T03:59:06;6.28;;;4.68;;
58669;SDS011;44439;47.924;10.198;2023-05-03T04:01:52;4.35;;;3.95;;
58669;SDS011;44439;47.924;10.198;2023-05-03T04:04:38;5.80;;;4.80;;
58669;SDS011;44439;47.924;10.198;2023-05-03T04:07:23;4.93;;;4.43;;
58669;SDS011;44439;47.924;10.198;2023-05-03T04:10:09;4.35;;;3.95;;
58669;SDS011;44439;47.924;10.198;2023-05-03T04:12:55;4.93;;;3.70;;
58669;SDS011;44439;47.924;10.198;2023-05-03T04:15:40;5.57;;;4.13;;
58669;SDS011;44439;47.924;10.198;2023-05-03T04:18:26;4.30;;;3.90;;
58669;SDS011;44439;47.924;10.198;2023-05-03T04:21:12;6.50;;;4.38;;
58669;SDS011;44439;47.924;10.198;2023-05-03T04:23:57;5.88;;;4.38;;
58669;SDS011;44439;47.924;10.198;2023-05-03T04:26:44;5.05;;;4.35;;
58669;SDS011;44439;47.924;10.198;2023-05-03T04:29:30;5.80;;;4.35;;
58669;SDS011;44439;47.924;10.198;2023-05-03T04:32:16;5.22;;;4.60;;
58669;SDS011;44439;47.924;10.198;2023-05-03T04:35:04;5.85;;;4.78;;
58669;SDS011;44439;47.924;10.198;2023-05-03T04:37:53;4.90;;;4.43;;
58669;SDS011;44439;47.924;10.198;2023-05-03T04:40:39;4.53;;;3.90;;
58669;SDS011;44439;47.924;10.198;2023-05-03T04:43:25;5.30;;;4.60;;
58669;SDS011;44439;47.924;10.198;2023-05-03T04:46:11;4.88;;;4.15;;
58669;SDS011;44439;47.924;10.198;2023-05-03T04:48:56;5.53;;;4.00;;
58669;SDS011;44439;47.924;10.198;2023-05-03T04:51:42;7.03;;;6.20;;
58669;SDS011;44439;47.924;10.198;2023-05-03T04:54:27;7.22;;;5.32;;
58669;SDS011;44439;47.924;10.198;2023-05-03T04:57:13;6.90;;;5.25;;
58669;SDS011;44439;47.924;10.198;2023-05-03T04:59:59;9.45;;;5.85;;
58669;SDS011;44439;47.924;10.198;2023-05-03T05:02:45;14.38;;;5.93;;
58669;SDS011;44439;47.924;10.198;2023-05-03T05:05:31;10.48;;;6.90;;
58669;SDS011;44439;47.924;10.198;2023-05-03T05:08:17;9.63;;;6.57;;
58669;SDS011;44439;47.924;10.198;2023-05-03T05:11:05;9.75;;;6.68;;
58669;SDS011;44439;47.924;10.198;2023-05-03T05:13:50;12.90;;;7.03;;
58669;SDS011;44439;47.924;10.198;2023-05-03T05:16:36;20.15;;;7.75;;
58669;SDS011;44439;47.924;10.198;2023-05-03T05:19:22;30.92;;;8.05;;
58669;SDS011;44439;47.924;10.198;2023-05-03T05:22:08;30.75;;;8.63;;
58669;SDS011;44439;47.924;10.198;2023-05-03T05:24:53;38.03;;;8.52;;
58669;SDS011;44439;47.924;10.198;2023-05-03T05:27:39;51.63;;;8.95;;
58669;SDS011;44439;47.924;10.198;2023-05-03T05:30:25;23.63;;;8.20;;
58669;SDS011;44439;47.924;10.198;2023-05-03T05:33:11;57.53;;;8.50;;
58669;SDS011;44439;47.924;10.198;2023-05-03T05:35:57;14.82;;;8.25;;
58669;SDS011;44439;47.924;10.198;2023-05-03T05:38:42;18.52;;;9.52;;
58669;SDS011;44439;47.924;10.198;2023-05-03T05:41:28;17.85;;;9.52;;
58669;SDS011;44439;47.924;10.198;2023-05-03T05:44:14;42.15;;;9.38;;
58669;SDS011;44439;47.924;10.198;2023-05-03T05:46:59;32.40;;;8.73;;
58669;SDS011;44439;47.924;10.198;2023-05-03T05:49:45;29.08;;;10.15;;
58669;SDS011;44439;47.924;10.198;2023-05-03T05:52:31;34.60;;;9.48;;
58669;SDS011;44439;47.924;10.198;2023-05-03T05:55:16;14.43;;;9.60;;
58669;SDS011;44439;47.924;10.198;2023-05-03T05:58:02;20.58;;;10.13;;
58669;SDS011;44439;47.924;10.198;2023-05-03T06:00:48;13.98;;;10.27;;
58669;SDS011;44439;47.924;10.198;2023-05-03T06:03:33;16.33;;;11.02;;
58669;SDS011;44439;47.924;10.198;2023-05-03T06:06:19;15.00;;;10.45;;
58669;SDS011;44439;47.924;10.198;2023-05-03T06:09:05;12.98;;;10.63;;
58669;SDS011;44439;47.924;10.198;2023-05-03T06:11:52;11.73;;;10.02;;
58669;SDS011;44439;47.924;10.198;2023-05-03T06:14:38;12.70;;;11.27;;
58669;SDS011;44439;47.924;10.198;2023-05-03T06:17:23;12.43;;;10.70;;
58669;SDS011;44439;47.924;10.198;2023-05-03T06:20:10;12.15;;;10.57;;
58669;SDS011;44439;47.924;10.198;2023-05-03T06:22:56;12.07;;;10.77;;
58669;SDS011;44439;47.924;10.198;2023-05-03T06:25:44;11.77;;;10.57;;
58669;SDS011;44439;47.924;10.198;2023-05-03T06:28:30;12.25;;;10.70;;
58669;SDS011;44439;47.924;10.198;2023-05-03T06:31:16;12.48;;;10.48;;
58669;SDS011;44439;47.924;10.198;2023-05-03T06:34:01;11.00;;;9.63;;
58669;SDS011;44439;47.924;10.198;2023-05-03T06:36:48;12.18;;;10.48;;
58669;SDS011;44439;47.924;10.198;2023-05-03T06:39:34;12.48;;;9.90;;
58669;SDS011;44439;47.924;10.198;2023-05-03T06:42:20;13.77;;;9.60;;
58669;SDS011;44439;47.924;10.198;2023-05-03T06:45:06;12.73;;;10.18;;
58669;SDS011;44439;47.924;10.198;2023-05-03T06:47:52;11.88;;;9.60;;
58669;SDS011;44439;47.924;10.198;2023-05-03T06:50:38;12.25;;;10.90;;
58669;SDS011;44439;47.924;10.198;2023-05-03T06:53:24;16.58;;;12.25;;
58669;SDS011;44439;47.924;10.198;2023-05-03T06:56:10;12.70;;;9.75;;
58669;SDS011;44439;47.924;10.198;2023-05-03T06:58:55;11.73;;;10.52;;
58669;SDS011;44439;47.924;10.198;2023-05-03T07:01:41;12.15;;;10.93;;
58669;SDS011;44439;47.924;10.198;2023-05-03T07:04:27;13.55;;;12.13;;
58669;SDS011;44439;47.924;10.198;2023-05-03T07:07:14;12.18;;;10.90;;
58669;SDS011;44439;47.924;10.198;2023-05-03T07:10:00;12.10;;;10.77;;
58669;SDS011;44439;47.924;10.198;2023-05-03T07:12:45;13.90;;;11.77;;
58669;SDS011;44439;47.924;10.198;2023-05-03T07:15:31;15.38;;;12.00;;
58669;SDS011;44439;47.924;10.198;2023-05-03T07:18:17;14.50;;;12.48;;
58669;SDS011;44439;47.924;10.198;2023-05-03T07:21:02;15.38;;;12.25;;
58669;SDS011;44439;47.924;10.198;2023-05-03T07:23:50;13.82;;;12.30;;
58669;SDS011;44439;47.924;10.198;2023-05-03T07:26:36;14.00;;;11.57;;
58669;SDS011;44439;47.924;10.198;2023-05-03T07:29:21;14.13;;;12.10;;
58669;SDS011;44439;47.924;10.198;2023-05-03T07:32:07;14.10;;;12.02;;
58669;SDS011;44439;47.924;10.198;2023-05-03T07:34:53;14.18;;;12.02;;
58669;SDS011;44439;47.924;10.198;2023-05-03T07:37:39;13.30;;;11.90;;
58669;SDS011;44439;47.924;10.198;2023-05-03T07:40:24;11.35;;;10.00;;
58669;SDS011;44439;47.924;10.198;2023-05-03T07:43:13;11.90;;;10.13;;
58669;SDS011;44439;47.924;10.198;2023-05-03T07:46:01;11.43;;;10.30;;
58669;SDS011;44439;47.924;10.198;2023-05-03T07:48:47;8.50;;;7.63;;
58669;SDS011;44439;47.924;10.198;2023-05-03T07:51:34;11.27;;;7.47;;
58669;SDS011;44439;47.924;10.198;2023-05-03T07:54:20;9.80;;;8.43;;
58669;SDS011;44439;47.924;10.198;2023-05-03T07:57:05;8.75;;;7.10;;
58669;SDS011;44439;47.924;10.198;2023-05-03T07:59:52;9.27;;;7.45;;
58669;SDS011;44439;47.924;10.198;2023-05-03T08:02:37;7.63;;;6.82;;
58669;SDS011;44439;47.924;10.198;2023-05-03T08:05:23;10.35;;;7.20;;
58669;SDS011;44439;47.924;10.198;2023-05-03T08:08:09;8.20;;;7.32;;
58669;SDS011;44439;47.924;10.198;2023-05-03T08:10:55;8.77;;;6.70;;
58669;SDS011;44439;47.924;10.198;2023-05-03T08:13:41;7.18;;;6.28;;
58669;SDS011;44439;47.924;10.198;2023-05-03T08:16:27;7.38;;;6.57;;
58669;SDS011;44439;47.924;10.198;2023-05-03T08:19:12;8.27;;;6.28;;
58669;SDS011;44439;47.924;10.198;2023-05-03T08:21:58;7.00;;;6.30;;
58669;SDS011;44439;47.924;10.198;2023-05-03T08:24:44;8.63;;;7.13;;
58669;SDS011;44439;47.924;10.198;2023-05-03T08:27:30;7.95;;;6.72;;
58669;SDS011;44439;47.924;10.198;2023-05-03T08:30:16;7.82;;;7.03;;
58669;SDS011;44439;47.924;10.198;2023-05-03T08:33:02;7.95;;;6.70;;
58669;SDS011;44439;47.924;10.198;2023-05-03T08:35:48;7.65;;;6.85;;
58669;SDS011;44439;47.924;10.198;2023-05-03T08:38:34;7.43;;;6.47;;
58669;SDS011;44439;47.924;10.198;2023-05-03T08:41:29;9.30;;;7.03;;
58669;SDS011;44439;47.924;10.198;2023-05-03T08:44:19;7.47;;;6.63;;
58669;SDS011;44439;47.924;10.198;2023-05-03T08:47:06;8.73;;;7.03;;
58669;SDS011;44439;47.924;10.198;2023-05-03T08:49:53;8.77;;;7.43;;
58669;SDS011;44439;47.924;10.198;2023-05-03T08:52:40;7.57;;;6.78;;
58669;SDS011;44439;47.924;10.198;2023-05-03T08:55:26;8.88;;;7.18;;
58669;SDS011;44439;47.924;10.198;2023-05-03T08:58:12;8.63;;;7.70;;
58669;SDS011;44439;47.924;10.198;2023-05-03T09:01:04;8.18;;;7.38;;
58669;SDS011;44439;47.924;10.198;2023-05-03T09:03:51;7.65;;;6.85;;
58669;SDS011;44439;47.924;10.198;2023-05-03T09:06:37;8.57;;;7.15;;
58669;SDS011;44439;47.924;10.198;2023-05-03T09:09:30;8.65;;;7.30;;
58669;SDS011;44439;47.924;10.198;2023-05-03T09:12:35;8.32;;;7.43;;
58669;SDS011;44439;47.924;10.198;2023-05-03T09:15:25;8.27;;;7.47;;
58669;SDS011;44439;47.924;10.198;2023-05-03T09:18:17;9.60;;;8.32;;
58669;SDS011;44439;47.924;10.198;2023-05-03T09:21:04;8.70;;;7.82;;
58669;SDS011;44439;47.924;10.198;2023-05-03T09:23:49;10.55;;;7.95;;
58669;SDS011;44439;47.924;10.198;2023-05-03T09:26:36;8.65;;;7.75;;
58669;SDS011;44439;47.924;10.198;2023-05-03T09:29:26;8.85;;;7.25;;
58669;SDS011;44439;47.924;10.198;2023-05-03T09:32:14;7.22;;;6.50;;
58669;SDS011;44439;47.924;10.198;2023-05-03T09:35:07;8.52;;;7.30;;
58669;SDS011;44439;47.924;10.198;2023-05-03T09:37:54;9.20;;;7.65;;
58669;SDS011;44439;47.924;10.198;2023-05-03T09:40:46;8.00;;;7.20;;
58669;SDS011;44439;47.924;10.198;2023-05-03T09:43:33;9.20;;;6.90;;
58669;SDS011;44439;47.924;10.198;2023-05-03T09:46:20;7.63;;;6.80;;
58669;SDS011;44439;47.924;10.198;2023-05-03T09:49:05;9.68;;;7.30;;
58669;SDS011;44439;47.924;10.198;2023-05-03T09:51:51;8.15;;;7.35;;
58669;SDS011;44439;47.924;10.198;2023-05-03T09:54:37;9.82;;;8.18;;
58669;SDS011;44439;47.924;10.198;2023-05-03T09:57:23;9.35;;;8.18;;
58669;SDS011;44439;47.924;10.198;2023-05-03T10:00:09;8.05;;;7.20;;
58669;SDS011;44439;47.924;10.198;2023-05-03T10:02:56;8.25;;;7.32;;
58669;SDS011;44439;47.924;10.198;2023-05-03T10:05:45;8.63;;;7.00;;
58669;SDS011;44439;47.924;10.198;2023-05-03T10:08:41;10.30;;;8.10;;
58669;SDS011;44439;47.924;10.198;2023-05-03T10:11:32;8.45;;;7.55;;
58669;SDS011;44439;47.924;10.198;2023-05-03T10:14:19;9.80;;;8.20;;
58669;SDS011;44439;47.924;10.198;2023-05-03T10:17:07;8.05;;;7.25;;
58669;SDS011;44439;47.924;10.198;2023-05-03T10:19:55;9.63;;;7.90;;
58669;SDS011;44439;47.924;10.198;2023-05-03T10:28:51;10.80;;;9.70;;
58669;SDS011;44439;47.924;10.198;2023-05-03T10:31:43;9.07;;;8.18;;
58669;SDS011;44439;47.924;10.198;2023-05-03T10:34:31;12.90;;;9.60;;
58669;SDS011;44439;47.924;10.198;2023-05-03T10:37:18;10.88;;;9.77;;
58669;SDS011;44439;47.924;10.198;2023-05-03T10:40:11;10.30;;;9.27;;
58669;SDS011;44439;47.924;10.198;2023-05-03T10:42:59;11.02;;;9.93;;
58669;SDS011;44439;47.924;10.198;2023-05-03T10:45:45;10.85;;;9.77;;
58669;SDS011;44439;47.924;10.198;2023-05-03T10:48:34;10.70;;;8.82;;
58669;SDS011;44439;47.924;10.198;2023-05-03T10:54:13;10.32;;;9.32;;
58669;SDS011;44439;47.924;10.198;2023-05-03T10:56:59;10.60;;;8.80;;
58669;SDS011;44439;47.924;10.198;2023-05-03T10:59:46;10.93;;;9.82;;
58669;SDS011;44439;47.924;10.198;2023-05-03T11:02:35;10.93;;;9.75;;
58669;SDS011;44439;47.924;10.198;2023-05-03T11:05:23;10.70;;;9.68;;
58669;SDS011;44439;47.924;10.198;2023-05-03T11:08:12;8.90;;;8.07;;
58669;SDS011;44439;47.924;10.198;2023-05-03T11:11:01;8.93;;;8.05;;
58669;SDS011;44439;47.924;10.198;2023-05-03T11:13:51;10.10;;;9.07;;
58669;SDS011;44439;47.924;10.198;2023-05-03T11:16:38;11.88;;;9.98;;
58669;SDS011;44439;47.924;10.198;2023-05-03T11:19:31;9.98;;;9.05;;
58669;SDS011;44439;47.924;10.198;2023-05-03T11:22:17;9.90;;;8.90;;
58669;SDS011;44439;47.924;10.198;2023-05-03T11:25:04;10.35;;;9.35;;
58669;SDS011;44439;47.924;10.198;2023-05-03T11:27:51;12.15;;;10.10;;
58669;SDS011;44439;47.924;10.198;2023-05-03T11:30:36;11.82;;;9.95;;
58669;SDS011;44439;47.924;10.198;2023-05-03T11:33:22;10.35;;;9.35;;
58669;SDS011;44439;47.924;10.198;2023-05-03T11:36:08;12.00;;;9.93;;
58669;SDS011;44439;47.924;10.198;2023-05-03T11:38:54;11.85;;;10.60;;
58669;SDS011;44439;47.924;10.198;2023-05-03T11:41:40;10.07;;;9.07;;
58669;SDS011;44439;47.924;10.198;2023-05-03T11:44:28;10.20;;;9.20;;
58669;SDS011;44439;47.924;10.198;2023-05-03T11:47:14;10.77;;;9.77;;
58669;SDS011;44439;47.924;10.198;2023-05-03T11:50:00;10.10;;;9.05;;
58669;SDS011;44439;47.924;10.198;2023-05-03T11:52:46;9.63;;;8.68;;
58669;SDS011;44439;47.924;10.198;2023-05-03T11:55:37;10.43;;;9.43;;
58669;SDS011;44439;47.924;10.198;2023-05-03T11:58:24;10.32;;;9.23;;
58669;SDS011;44439;47.924;10.198;2023-05-03T12:01:11;11.32;;;10.10;;
58669;SDS011;44439;47.924;10.198;2023-05-03T12:03:58;9.30;;;8.38;;
58669;SDS011;44439;47.924;10.198;2023-05-03T12:06:45;11.05;;;9.80;;
58669;SDS011;44439;47.924;10.198;2023-05-03T12:09:36;11.57;;;10.38;;
58669;SDS011;44439;47.924;10.198;2023-05-03T12:12:22;10.30;;;9.30;;
58669;SDS011;44439;47.924;10.198;2023-05-03T12:15:08;11.43;;;10.32;;
58669;SDS011;44439;47.924;10.198;2023-05-03T12:17:55;11.68;;;10.18;;
58669;SDS011;44439;47.924;10.198;2023-05-03T12:20:41;8.95;;;8.07;;
58669;SDS011;44439;47.924;10.198;2023-05-03T12:23:27;11.43;;;9.68;;
58669;SDS011;44439;47.924;10.198;2023-05-03T12:26:15;9.68;;;8.68;;
58669;SDS011;44439;47.924;10.198;2023-05-03T12:29:01;11.02;;;9.55;;
58669;SDS011;44439;47.924;10.198;2023-05-03T12:31:47;10.57;;;9.57;;
58669;SDS011;44439;47.924;10.198;2023-05-03T12:34:35;10.98;;;9.88;;
58669;SDS011;44439;47.924;10.198;2023-05-03T12:37:23;11.68;;;10.48;;
58669;SDS011;44439;47.924;10.198;2023-05-03T12:40:09;11.65;;;10.50;;
58669;SDS011;44439;47.924;10.198;2023-05-03T12:42:56;11.82;;;10.02;;
58669;SDS011;44439;47.924;10.198;2023-05-03T12:45:42;10.85;;;9.85;;
58669;SDS011;44439;47.924;10.198;2023-05-03T12:48:30;10.95;;;9.52;;
58669;SDS011;44439;47.924;10.198;2023-05-03T12:51:16;9.63;;;8.57;;
58669;SDS011;44439;47.924;10.198;2023-05-03T12:54:09;10.50;;;9.50;;
58669;SDS011;44439;47.924;10.198;2023-05-03T12:56:55;10.07;;;8.52;;
58669;SDS011;44439;47.924;10.198;2023-05-03T12:59:44;9.90;;;8.90;;
58669;SDS011;44439;47.924;10.198;2023-05-03T13:02:30;10.10;;;8.77;;
58669;SDS011;44439;47.924;10.198;2023-05-03T13:05:16;9.77;;;8.38;;
58669;SDS011;44439;47.924;10.198;2023-05-03T13:08:02;8.60;;;7.70;;
58669;SDS011;44439;47.924;10.198;2023-05-03T13:10:48;9.80;;;7.65;;
58669;SDS011;44439;47.924;10.198;2023-05-03T13:13:34;8.77;;;7.95;;
58669;SDS011;44439;47.924;10.198;2023-05-03T13:16:20;8.20;;;7.15;;
58669;SDS011;44439;47.924;10.198;2023-05-03T13:19:05;9.20;;;8.00;;
58669;SDS011;44439;47.924;10.198;2023-05-03T13:21:51;8.60;;;7.28;;
58669;SDS011;44439;47.924;10.198;2023-05-03T13:24:37;9.48;;;7.95;;
58669;SDS011;44439;47.924;10.198;2023-05-03T13:27:23;9.20;;;8.10;;
58669;SDS011;44439;47.924;10.198;2023-05-03T13:30:08;9.93;;;8.93;;
58669;SDS011;44439;47.924;10.198;2023-05-03T13:32:55;10.30;;;8.15;;
58669;SDS011;44439;47.924;10.198;2023-05-03T13:35:40;9.90;;;8.00;;
58669;SDS011;44439;47.924;10.198;2023-05-03T13:38:26;9.13;;;8.15;;
58669;SDS011;44439;47.924;10.198;2023-05-03T13:41:12;9.93;;;8.90;;
58669;SDS011;44439;47.924;10.198;2023-05-03T13:43:58;10.68;;;7.20;;
58669;SDS011;44439;47.924;10.198;2023-05-03T13:46:43;8.52;;;7.60;;
58669;SDS011;44439;47.924;10.198;2023-05-03T13:49:29;9.15;;;7.22;;
58669;SDS011;44439;47.924;10.198;2023-05-03T13:52:15;9.05;;;7.22;;
58669;SDS011;44439;47.924;10.198;2023-05-03T13:55:01;10.40;;;7.93;;
58669;SDS011;44439;47.924;10.198;2023-05-03T14:00:37;8.95;;;6.03;;
58669;SDS011;44439;47.924;10.198;2023-05-03T14:03:25;9.50;;;5.35;;
58669;SDS011;44439;47.924;10.198;2023-05-03T14:06:11;6.28;;;5.68;;
58669;SDS011;44439;47.924;10.198;2023-05-03T14:08:58;8.25;;;6.68;;
58669;SDS011;44439;47.924;10.198;2023-05-03T14:11:49;7.35;;;5.47;;
58669;SDS011;44439;47.924;10.198;2023-05-03T14:14:35;7.97;;;6.47;;
58669;SDS011;44439;47.924;10.198;2023-05-03T14:17:22;9.50;;;6.32;;
58669;SDS011;44439;47.924;10.198;2023-05-03T14:20:08;6.65;;;5.57;;
58669;SDS011;44439;47.924;10.198;2023-05-03T14:22:56;6.85;;;5.63;;
58669;SDS011;44439;47.924;10.198;2023-05-03T14:25:42;7.18;;;4.90;;
58669;SDS011;44439;47.924;10.198;2023-05-03T14:28:28;6.13;;;5.53;;
58669;SDS011;44439;47.924;10.198;2023-05-03T14:31:14;5.88;;;5.07;;
58669;SDS011;44439;47.924;10.198;2023-05-03T14:34:00;6.30;;;5.28;;
58669;SDS011;44439;47.924;10.198;2023-05-03T14:36:46;5.60;;;4.97;;
58669;SDS011;44439;47.924;10.198;2023-05-03T14:39:32;6.70;;;4.95;;
58669;SDS011;44439;47.924;10.198;2023-05-03T14:42:18;7.75;;;5.95;;
58669;SDS011;44439;47.924;10.198;2023-05-03T14:45:04;6.43;;;5.45;;
58669;SDS011;44439;47.924;10.198;2023-05-03T14:47:51;6.68;;;5.72;;
58669;SDS011;44439;47.924;10.198;2023-05-03T14:50:36;6.15;;;5.22;;
58669;SDS011;44439;47.924;10.198;2023-05-03T14:53:22;5.40;;;4.88;;
58669;SDS011;44439;47.924;10.198;2023-05-03T14:56:08;5.50;;;4.45;;
58669;SDS011;44439;47.924;10.198;2023-05-03T14:58:54;5.25;;;4.75;;
58669;SDS011;44439;47.924;10.198;2023-05-03T15:01:40;8.05;;;4.47;;
58669;SDS011;44439;47.924;10.198;2023-05-03T15:04:28;5.55;;;4.47;;
58669;SDS011;44439;47.924;10.198;2023-05-03T15:07:14;6.72;;;4.97;;
58669;SDS011;44439;47.924;10.198;2023-05-03T15:10:00;6.07;;;4.70;;
58669;SDS011;44439;47.924;10.198;2023-05-03T15:12:48;6.95;;;5.05;;
58669;SDS011;44439;47.924;10.198;2023-05-03T15:15:33;6.47;;;5.38;;
58669;SDS011;44439;47.924;10.198;2023-05-03T15:18:20;6.05;;;4.88;;
58669;SDS011;44439;47.924;10.198;2023-05-03T15:21:06;6.20;;;5.30;;
58669;SDS011;44439;47.924;10.198;2023-05-03T15:23:52;6.53;;;5.32;;
58669;SDS011;44439;47.924;10.198;2023-05-03T15:26:38;8.68;;;4.80;;
58669;SDS011;44439;47.924;10.198;2023-05-03T15:29:24;7.18;;;5.05;;
58669;SDS011;44439;47.924;10.198;2023-05-03T15:32:09;6.50;;;5.30;;
58669;SDS011;44439;47.924;10.198;2023-05-03T15:34:56;6.85;;;4.88;;
58669;SDS011;44439;47.924;10.198;2023-05-03T15:37:42;5.55;;;4.88;;
58669;SDS011;44439;47.924;10.198;2023-05-03T15:40:28;5.40;;;4.60;;
58669;SDS011;44439;47.924;10.198;2023-05-03T15:43:13;6.28;;;5.15;;
58669;SDS011;44439;47.924;10.198;2023-05-03T15:45:59;7.82;;;5.60;;
58669;SDS011;44439;47.924;10.198;2023-05-03T15:48:46;7.63;;;5.13;;
58669;SDS011;44439;47.924;10.198;2023-05-03T15:51:31;5.97;;;5.38;;
58669;SDS011;44439;47.924;10.198;2023-05-03T15:54:17;6.57;;;4.97;;
58669;SDS011;44439;47.924;10.198;2023-05-03T15:57:03;5.82;;;5.05;;
58669;SDS011;44439;47.924;10.198;2023-05-03T15:59:49;6.97;;;5.03;;
58669;SDS011;44439;47.924;10.198;2023-05-03T16:02:34;7.82;;;6.30;;
58669;SDS011;44439;47.924;10.198;2023-05-03T16:05:20;5.68;;;5.07;;
58669;SDS011;44439;47.924;10.198;2023-05-03T16:08:07;5.38;;;4.85;;
58669;SDS011;44439;47.924;10.198;2023-05-03T16:10:52;7.75;;;5.88;;
58669;SDS011;44439;47.924;10.198;2023-05-03T16:13:38;8.73;;;4.97;;
58669;SDS011;44439;47.924;10.198;2023-05-03T16:16:24;5.43;;;4.47;;
58669;SDS011;44439;47.924;10.198;2023-05-03T16:19:09;6.63;;;4.72;;
58669;SDS011;44439;47.924;10.198;2023-05-03T16:21:56;5.30;;;4.30;;
58669;SDS011;44439;47.924;10.198;2023-05-03T16:24:41;8.18;;;6.60;;
58669;SDS011;44439;47.924;10.198;2023-05-03T16:27:27;5.22;;;4.70;;
58669;SDS011;44439;47.924;10.198;2023-05-03T16:30:13;6.10;;;4.45;;
58669;SDS011;44439;47.924;10.198;2023-05-03T16:33:00;5.78;;;4.43;;
58669;SDS011;44439;47.924;10.198;2023-05-03T16:35:48;7.80;;;5.60;;
58669;SDS011;44439;47.924;10.198;2023-05-03T16:38:34;6.53;;;3.80;;